sensor_id;sensor_type;location;lat;lon;timestamp;temperature;humidity
41884;DHT22;27566;50.930;5.328;2023-08-30T00:00:55;15.00;88.30
41884;DHT22;27566;50.930;5.328;2023-08-30T00:03:21;15.00;88.30
41884;DHT22;27566;50.930;5.328;2023-08-30T00:05:47;14.90;88.10
41884;DHT22;27566;50.930;5.328;2023-08-30T00:08:12;14.90;87.90
41884;DHT22;27566;50.930;5.328;2023-08-30T00:10:45;15.00;87.80
41884;DHT22;27566;50.930;5.328;2023-08-30T00:13:11;14.90;87.60
41884;DHT22;27566;50.930;5.328;2023-08-30T00:15:38;14.80;87.60
41884;DHT22;27566;50.930;5.328;2023-08-30T00:18:04;14.80;87.70
41884;DHT22;27566;50.930;5.328;2023-08-30T00:20:30;14.80;87.70
41884;DHT22;27566;50.930;5.328;2023-08-30T00:22:55;14.70;87.70
41884;DHT22;27566;50.930;5.328;2023-08-30T00:25:21;14.70;88.00
41884;DHT22;27566;50.930;5.328;2023-08-30T00:27:47;14.70;88.50
41884;DHT22;27566;50.930;5.328;2023-08-30T00:30:13;14.80;88.90
41884;DHT22;27566;50.930;5.328;2023-08-30T00:32:38;14.90;89.10
41884;DHT22;27566;50.930;5.328;2023-08-30T00:35:05;15.00;89.00
41884;DHT22;27566;50.930;5.328;2023-08-30T00:37:31;15.10;88.80
41884;DHT22;27566;50.930;5.328;2023-08-30T00:39:57;15.20;88.50
41884;DHT22;27566;50.930;5.328;2023-08-30T00:42:25;15.20;88.20
41884;DHT22;27566;50.930;5.328;2023-08-30T00:44:51;15.30;87.90
41884;DHT22;27566;50.930;5.328;2023-08-30T00:47:17;15.40;87.70
41884;DHT22;27566;50.930;5.328;2023-08-30T00:49:43;15.50;87.30
41884;DHT22;27566;50.930;5.328;2023-08-30T00:52:10;15.50;86.90
41884;DHT22;27566;50.930;5.328;2023-08-30T00:54:37;15.60;86.80
41884;DHT22;27566;50.930;5.328;2023-08-30T00:57:04;15.60;86.40
41884;DHT22;27566;50.930;5.328;2023-08-30T00:59:32;15.70;86.10
41884;DHT22;27566;50.930;5.328;2023-08-30T01:01:58;15.70;85.30
41884;DHT22;27566;50.930;5.328;2023-08-30T01:04:26;15.70;85.20
41884;DHT22;27566;50.930;5.328;2023-08-30T01:06:52;15.70;85.00
41884;DHT22;27566;50.930;5.328;2023-08-30T01:09:19;15.80;84.70
41884;DHT22;27566;50.930;5.328;2023-08-30T01:14:25;15.80;84.00
41884;DHT22;27566;50.930;5.328;2023-08-30T01:16:52;15.90;84.00
41884;DHT22;27566;50.930;5.328;2023-08-30T01:22:08;15.90;83.70
41884;DHT22;27566;50.930;5.328;2023-08-30T01:27:43;15.90;83.30
41884;DHT22;27566;50.930;5.328;2023-08-30T01:30:12;16.00;83.00
41884;DHT22;27566;50.930;5.328;2023-08-30T01:32:39;16.00;82.70
41884;DHT22;27566;50.930;5.328;2023-08-30T01:35:06;16.00;82.70
41884;DHT22;27566;50.930;5.328;2023-08-30T01:37:33;16.00;82.60
41884;DHT22;27566;50.930;5.328;2023-08-30T01:39:59;16.00;82.50
41884;DHT22;27566;50.930;5.328;2023-08-30T01:42:27;16.00;82.40
41884;DHT22;27566;50.930;5.328;2023-08-30T01:44:56;16.10;82.20
41884;DHT22;27566;50.930;5.328;2023-08-30T01:47:26;16.10;82.10
41884;DHT22;27566;50.930;5.328;2023-08-30T01:49:53;16.10;82.00
41884;DHT22;27566;50.930;5.328;2023-08-30T01:52:21;16.10;81.70
41884;DHT22;27566;50.930;5.328;2023-08-30T01:54:48;16.20;81.60
41884;DHT22;27566;50.930;5.328;2023-08-30T01:57:16;16.10;81.40
41884;DHT22;27566;50.930;5.328;2023-08-30T01:59:42;16.20;81.30
41884;DHT22;27566;50.930;5.328;2023-08-30T02:02:08;16.20;81.30
41884;DHT22;27566;50.930;5.328;2023-08-30T02:04:34;16.20;81.20
41884;DHT22;27566;50.930;5.328;2023-08-30T02:07:04;16.20;80.80
41884;DHT22;27566;50.930;5.328;2023-08-30T02:09:39;16.20;81.00
41884;DHT22;27566;50.930;5.328;2023-08-30T02:12:10;16.20;81.00
41884;DHT22;27566;50.930;5.328;2023-08-30T02:14:39;16.20;80.90
41884;DHT22;27566;50.930;5.328;2023-08-30T02:17:07;16.20;80.80
41884;DHT22;27566;50.930;5.328;2023-08-30T02:19:34;16.30;80.30
41884;DHT22;27566;50.930;5.328;2023-08-30T02:22:00;16.30;80.50
41884;DHT22;27566;50.930;5.328;2023-08-30T02:24:25;16.30;80.70
41884;DHT22;27566;50.930;5.328;2023-08-30T02:26:51;16.30;80.70
41884;DHT22;27566;50.930;5.328;2023-08-30T02:29:17;16.30;80.70
41884;DHT22;27566;50.930;5.328;2023-08-30T02:31:43;16.30;80.50
41884;DHT22;27566;50.930;5.328;2023-08-30T02:34:09;16.40;80.30
41884;DHT22;27566;50.930;5.328;2023-08-30T02:36:35;16.40;80.30
41884;DHT22;27566;50.930;5.328;2023-08-30T02:39:01;16.40;80.10
41884;DHT22;27566;50.930;5.328;2023-08-30T02:41:27;16.40;80.00
41884;DHT22;27566;50.930;5.328;2023-08-30T02:43:53;16.40;79.90
41884;DHT22;27566;50.930;5.328;2023-08-30T02:46:19;16.40;79.90
41884;DHT22;27566;50.930;5.328;2023-08-30T02:48:45;16.50;79.90
41884;DHT22;27566;50.930;5.328;2023-08-30T02:51:10;16.50;79.70
41884;DHT22;27566;50.930;5.328;2023-08-30T02:53:36;16.50;79.70
41884;DHT22;27566;50.930;5.328;2023-08-30T02:56:02;16.40;79.50
41884;DHT22;27566;50.930;5.328;2023-08-30T02:58:28;16.50;79.60
41884;DHT22;27566;50.930;5.328;2023-08-30T03:00:54;16.50;79.50
41884;DHT22;27566;50.930;5.328;2023-08-30T03:03:20;16.50;79.40
41884;DHT22;27566;50.930;5.328;2023-08-30T03:05:45;16.50;79.40
41884;DHT22;27566;50.930;5.328;2023-08-30T03:08:11;16.60;79.30
41884;DHT22;27566;50.930;5.328;2023-08-30T03:10:37;16.60;79.30
41884;DHT22;27566;50.930;5.328;2023-08-30T03:13:03;16.60;79.40
41884;DHT22;27566;50.930;5.328;2023-08-30T03:15:31;16.60;79.30
41884;DHT22;27566;50.930;5.328;2023-08-30T03:17:59;16.50;79.30
41884;DHT22;27566;50.930;5.328;2023-08-30T03:20:24;16.50;79.40
41884;DHT22;27566;50.930;5.328;2023-08-30T03:22:50;16.50;79.30
41884;DHT22;27566;50.930;5.328;2023-08-30T03:25:16;16.60;79.40
41884;DHT22;27566;50.930;5.328;2023-08-30T03:27:44;16.60;79.30
41884;DHT22;27566;50.930;5.328;2023-08-30T03:30:10;16.60;79.40
41884;DHT22;27566;50.930;5.328;2023-08-30T03:32:36;16.60;79.30
41884;DHT22;27566;50.930;5.328;2023-08-30T03:35:03;16.60;79.40
41884;DHT22;27566;50.930;5.328;2023-08-30T03:37:29;16.70;79.40
41884;DHT22;27566;50.930;5.328;2023-08-30T03:39:55;16.70;79.30
41884;DHT22;27566;50.930;5.328;2023-08-30T03:42:21;16.70;79.30
41884;DHT22;27566;50.930;5.328;2023-08-30T03:44:47;16.70;79.20
41884;DHT22;27566;50.930;5.328;2023-08-30T03:47:13;16.70;79.20
41884;DHT22;27566;50.930;5.328;2023-08-30T03:49:38;16.70;79.20
41884;DHT22;27566;50.930;5.328;2023-08-30T03:52:05;16.70;79.20
41884;DHT22;27566;50.930;5.328;2023-08-30T03:54:32;16.70;79.20
41884;DHT22;27566;50.930;5.328;2023-08-30T03:56:57;16.70;79.20
41884;DHT22;27566;50.930;5.328;2023-08-30T03:59:23;16.70;79.30
41884;DHT22;27566;50.930;5.328;2023-08-30T04:01:51;16.70;79.20
41884;DHT22;27566;50.930;5.328;2023-08-30T04:04:17;16.70;79.30
41884;DHT22;27566;50.930;5.328;2023-08-30T04:06:43;16.70;79.30
41884;DHT22;27566;50.930;5.328;2023-08-30T04:09:09;16.70;79.40
41884;DHT22;27566;50.930;5.328;2023-08-30T04:11:35;16.70;79.50
41884;DHT22;27566;50.930;5.328;2023-08-30T04:14:01;16.70;79.60
41884;DHT22;27566;50.930;5.328;2023-08-30T04:16:28;16.70;79.60
41884;DHT22;27566;50.930;5.328;2023-08-30T04:18:54;16.70;79.60
41884;DHT22;27566;50.930;5.328;2023-08-30T04:21:20;16.80;79.60
41884;DHT22;27566;50.930;5.328;2023-08-30T04:23:46;16.80;79.60
41884;DHT22;27566;50.930;5.328;2023-08-30T04:26:12;16.80;79.60
41884;DHT22;27566;50.930;5.328;2023-08-30T04:28:37;16.80;79.70
41884;DHT22;27566;50.930;5.328;2023-08-30T04:31:03;16.80;80.00
41884;DHT22;27566;50.930;5.328;2023-08-30T04:33:29;16.80;80.20
41884;DHT22;27566;50.930;5.328;2023-08-30T04:35:55;16.80;80.10
41884;DHT22;27566;50.930;5.328;2023-08-30T04:38:24;16.80;80.10
41884;DHT22;27566;50.930;5.328;2023-08-30T04:40:50;16.70;80.20
41884;DHT22;27566;50.930;5.328;2023-08-30T04:43:16;16.70;81.00
41884;DHT22;27566;50.930;5.328;2023-08-30T04:45:42;16.70;80.50
41884;DHT22;27566;50.930;5.328;2023-08-30T04:48:08;16.70;80.40
41884;DHT22;27566;50.930;5.328;2023-08-30T04:50:34;16.70;80.40
41884;DHT22;27566;50.930;5.328;2023-08-30T04:52:59;16.70;80.50
41884;DHT22;27566;50.930;5.328;2023-08-30T04:55:28;16.70;80.60
41884;DHT22;27566;50.930;5.328;2023-08-30T04:57:55;16.70;80.50
41884;DHT22;27566;50.930;5.328;2023-08-30T05:00:21;16.70;80.40
41884;DHT22;27566;50.930;5.328;2023-08-30T05:02:47;16.70;80.20
41884;DHT22;27566;50.930;5.328;2023-08-30T05:05:16;16.70;80.10
41884;DHT22;27566;50.930;5.328;2023-08-30T05:07:42;16.70;80.10
41884;DHT22;27566;50.930;5.328;2023-08-30T05:10:08;16.70;80.00
41884;DHT22;27566;50.930;5.328;2023-08-30T05:12:34;16.70;79.90
41884;DHT22;27566;50.930;5.328;2023-08-30T05:15:01;16.70;79.80
41884;DHT22;27566;50.930;5.328;2023-08-30T05:17:27;16.80;79.80
41884;DHT22;27566;50.930;5.328;2023-08-30T05:19:54;16.80;79.90
41884;DHT22;27566;50.930;5.328;2023-08-30T05:22:20;16.80;79.60
41884;DHT22;27566;50.930;5.328;2023-08-30T05:24:46;16.80;79.50
41884;DHT22;27566;50.930;5.328;2023-08-30T05:27:12;16.90;79.20
41884;DHT22;27566;50.930;5.328;2023-08-30T05:29:38;16.90;79.20
41884;DHT22;27566;50.930;5.328;2023-08-30T05:32:04;16.90;79.40
41884;DHT22;27566;50.930;5.328;2023-08-30T05:34:30;17.00;78.90
41884;DHT22;27566;50.930;5.328;2023-08-30T05:36:56;17.00;78.70
41884;DHT22;27566;50.930;5.328;2023-08-30T05:39:22;17.10;78.70
41884;DHT22;27566;50.930;5.328;2023-08-30T05:41:48;17.20;78.10
41884;DHT22;27566;50.930;5.328;2023-08-30T05:44:14;17.30;77.80
41884;DHT22;27566;50.930;5.328;2023-08-30T05:46:40;17.40;76.90
41884;DHT22;27566;50.930;5.328;2023-08-30T05:49:05;17.40;76.60
41884;DHT22;27566;50.930;5.328;2023-08-30T05:51:31;17.50;75.80
41884;DHT22;27566;50.930;5.328;2023-08-30T05:53:57;17.50;75.80
41884;DHT22;27566;50.930;5.328;2023-08-30T05:56:23;17.60;75.60
41884;DHT22;27566;50.930;5.328;2023-08-30T05:58:49;17.60;75.00
41884;DHT22;27566;50.930;5.328;2023-08-30T06:01:18;17.70;74.90
41884;DHT22;27566;50.930;5.328;2023-08-30T06:03:45;17.70;75.20
41884;DHT22;27566;50.930;5.328;2023-08-30T06:06:12;17.80;74.80
41884;DHT22;27566;50.930;5.328;2023-08-30T06:08:38;17.80;74.40
41884;DHT22;27566;50.930;5.328;2023-08-30T06:11:04;17.90;74.00
41884;DHT22;27566;50.930;5.328;2023-08-30T06:13:30;18.00;73.40
41884;DHT22;27566;50.930;5.328;2023-08-30T06:15:56;18.10;73.10
41884;DHT22;27566;50.930;5.328;2023-08-30T06:18:22;18.20;72.50
41884;DHT22;27566;50.930;5.328;2023-08-30T06:20:48;18.20;73.30
41884;DHT22;27566;50.930;5.328;2023-08-30T06:23:17;18.30;74.00
41884;DHT22;27566;50.930;5.328;2023-08-30T06:25:43;18.40;74.10
41884;DHT22;27566;50.930;5.328;2023-08-30T06:28:09;18.40;74.00
41884;DHT22;27566;50.930;5.328;2023-08-30T06:30:35;18.40;73.80
41884;DHT22;27566;50.930;5.328;2023-08-30T06:33:01;18.40;73.10
41884;DHT22;27566;50.930;5.328;2023-08-30T06:35:27;18.50;72.40
41884;DHT22;27566;50.930;5.328;2023-08-30T06:37:53;18.60;72.00
41884;DHT22;27566;50.930;5.328;2023-08-30T06:40:19;18.70;70.80
41884;DHT22;27566;50.930;5.328;2023-08-30T06:42:45;18.70;70.00
41884;DHT22;27566;50.930;5.328;2023-08-30T06:45:11;18.80;70.10
41884;DHT22;27566;50.930;5.328;2023-08-30T06:47:37;18.80;69.20
41884;DHT22;27566;50.930;5.328;2023-08-30T06:50:03;18.80;69.60
41884;DHT22;27566;50.930;5.328;2023-08-30T06:52:29;18.80;69.30
41884;DHT22;27566;50.930;5.328;2023-08-30T06:54:55;18.80;69.00
41884;DHT22;27566;50.930;5.328;2023-08-30T06:57:21;18.80;68.60
41884;DHT22;27566;50.930;5.328;2023-08-30T06:59:47;18.90;68.60
41884;DHT22;27566;50.930;5.328;2023-08-30T07:02:13;18.90;68.70
41884;DHT22;27566;50.930;5.328;2023-08-30T07:04:39;18.90;68.80
41884;DHT22;27566;50.930;5.328;2023-08-30T07:07:05;19.00;68.50
41884;DHT22;27566;50.930;5.328;2023-08-30T07:09:31;19.00;68.30
41884;DHT22;27566;50.930;5.328;2023-08-30T07:11:59;19.20;68.10
41884;DHT22;27566;50.930;5.328;2023-08-30T07:14:25;19.30;67.50
41884;DHT22;27566;50.930;5.328;2023-08-30T07:16:52;19.40;67.10
41884;DHT22;27566;50.930;5.328;2023-08-30T07:19:17;19.50;66.50
41884;DHT22;27566;50.930;5.328;2023-08-30T07:21:43;19.40;66.00
41884;DHT22;27566;50.930;5.328;2023-08-30T07:24:09;19.40;65.90
41884;DHT22;27566;50.930;5.328;2023-08-30T07:26:36;19.40;66.00
41884;DHT22;27566;50.930;5.328;2023-08-30T07:29:03;19.50;65.60
41884;DHT22;27566;50.930;5.328;2023-08-30T07:31:31;19.40;65.60
41884;DHT22;27566;50.930;5.328;2023-08-30T07:33:57;19.50;65.70
41884;DHT22;27566;50.930;5.328;2023-08-30T07:36:27;19.50;65.20
41884;DHT22;27566;50.930;5.328;2023-08-30T07:38:54;19.70;64.70
41884;DHT22;27566;50.930;5.328;2023-08-30T07:41:20;19.80;64.70
41884;DHT22;27566;50.930;5.328;2023-08-30T07:43:45;19.90;64.30
41884;DHT22;27566;50.930;5.328;2023-08-30T07:46:11;19.90;64.30
41884;DHT22;27566;50.930;5.328;2023-08-30T07:48:37;19.80;64.10
41884;DHT22;27566;50.930;5.328;2023-08-30T07:51:03;19.80;64.40
41884;DHT22;27566;50.930;5.328;2023-08-30T07:53:30;19.90;64.40
41884;DHT22;27566;50.930;5.328;2023-08-30T07:55:56;20.00;63.90
41884;DHT22;27566;50.930;5.328;2023-08-30T07:58:22;20.10;63.70
41884;DHT22;27566;50.930;5.328;2023-08-30T08:00:53;20.00;63.60
41884;DHT22;27566;50.930;5.328;2023-08-30T08:03:22;19.90;65.00
41884;DHT22;27566;50.930;5.328;2023-08-30T08:05:48;19.80;65.80
41884;DHT22;27566;50.930;5.328;2023-08-30T08:08:14;19.70;67.40
41884;DHT22;27566;50.930;5.328;2023-08-30T08:10:41;19.50;68.40
41884;DHT22;27566;50.930;5.328;2023-08-30T08:13:07;19.30;69.60
41884;DHT22;27566;50.930;5.328;2023-08-30T08:15:33;19.30;70.50
41884;DHT22;27566;50.930;5.328;2023-08-30T08:18:00;19.20;71.10
41884;DHT22;27566;50.930;5.328;2023-08-30T08:20:34;19.10;71.80
41884;DHT22;27566;50.930;5.328;2023-08-30T08:23:00;19.10;72.60
41884;DHT22;27566;50.930;5.328;2023-08-30T08:25:26;19.20;73.00
41884;DHT22;27566;50.930;5.328;2023-08-30T08:27:52;19.10;73.70
41884;DHT22;27566;50.930;5.328;2023-08-30T08:30:18;19.00;73.90
41884;DHT22;27566;50.930;5.328;2023-08-30T08:32:46;19.00;74.30
41884;DHT22;27566;50.930;5.328;2023-08-30T08:35:15;18.80;74.70
41884;DHT22;27566;50.930;5.328;2023-08-30T08:37:41;18.70;75.50
41884;DHT22;27566;50.930;5.328;2023-08-30T08:40:07;18.60;75.90
41884;DHT22;27566;50.930;5.328;2023-08-30T08:42:37;18.40;76.80
41884;DHT22;27566;50.930;5.328;2023-08-30T08:45:03;18.30;77.60
41884;DHT22;27566;50.930;5.328;2023-08-30T08:47:31;18.20;78.10
41884;DHT22;27566;50.930;5.328;2023-08-30T08:49:57;18.10;79.00
41884;DHT22;27566;50.930;5.328;2023-08-30T08:52:24;18.10;79.80
41884;DHT22;27566;50.930;5.328;2023-08-30T08:54:52;18.10;80.40
41884;DHT22;27566;50.930;5.328;2023-08-30T08:57:19;18.10;80.80
41884;DHT22;27566;50.930;5.328;2023-08-30T08:59:44;18.10;81.30
41884;DHT22;27566;50.930;5.328;2023-08-30T09:02:14;18.20;82.30
41884;DHT22;27566;50.930;5.328;2023-08-30T09:04:40;18.30;81.90
41884;DHT22;27566;50.930;5.328;2023-08-30T09:07:06;18.40;81.60
41884;DHT22;27566;50.930;5.328;2023-08-30T09:09:36;18.50;82.00
41884;DHT22;27566;50.930;5.328;2023-08-30T09:12:02;18.60;82.40
41884;DHT22;27566;50.930;5.328;2023-08-30T09:14:28;18.70;82.30
41884;DHT22;27566;50.930;5.328;2023-08-30T09:16:58;18.90;81.70
41884;DHT22;27566;50.930;5.328;2023-08-30T09:19:26;18.90;80.80
41884;DHT22;27566;50.930;5.328;2023-08-30T09:21:55;19.00;81.40
41884;DHT22;27566;50.930;5.328;2023-08-30T09:24:22;19.10;80.70
41884;DHT22;27566;50.930;5.328;2023-08-30T09:26:49;19.10;80.70
41884;DHT22;27566;50.930;5.328;2023-08-30T09:29:17;19.10;80.40
41884;DHT22;27566;50.930;5.328;2023-08-30T09:31:43;19.00;80.20
41884;DHT22;27566;50.930;5.328;2023-08-30T09:34:09;18.90;80.70
41884;DHT22;27566;50.930;5.328;2023-08-30T09:36:40;19.10;81.10
41884;DHT22;27566;50.930;5.328;2023-08-30T09:39:11;19.10;81.30
41884;DHT22;27566;50.930;5.328;2023-08-30T09:41:40;19.20;80.50
41884;DHT22;27566;50.930;5.328;2023-08-30T09:44:17;19.30;81.00
41884;DHT22;27566;50.930;5.328;2023-08-30T09:46:51;19.30;81.20
41884;DHT22;27566;50.930;5.328;2023-08-30T09:49:25;19.40;81.40
41884;DHT22;27566;50.930;5.328;2023-08-30T09:51:52;19.50;81.10
41884;DHT22;27566;50.930;5.328;2023-08-30T09:54:24;19.60;80.00
41884;DHT22;27566;50.930;5.328;2023-08-30T09:56:50;19.70;80.20
41884;DHT22;27566;50.930;5.328;2023-08-30T09:59:18;19.80;79.70
41884;DHT22;27566;50.930;5.328;2023-08-30T10:01:46;19.80;78.80
41884;DHT22;27566;50.930;5.328;2023-08-30T10:04:15;19.80;77.90
41884;DHT22;27566;50.930;5.328;2023-08-30T10:06:41;19.70;78.10
41884;DHT22;27566;50.930;5.328;2023-08-30T10:09:08;19.70;78.80
41884;DHT22;27566;50.930;5.328;2023-08-30T10:11:35;19.70;79.00
41884;DHT22;27566;50.930;5.328;2023-08-30T10:14:06;19.80;79.50
41884;DHT22;27566;50.930;5.328;2023-08-30T10:16:40;20.00;79.20
41884;DHT22;27566;50.930;5.328;2023-08-30T10:19:11;20.10;78.30
41884;DHT22;27566;50.930;5.328;2023-08-30T10:21:39;20.20;77.70
41884;DHT22;27566;50.930;5.328;2023-08-30T10:24:09;20.20;77.30
41884;DHT22;27566;50.930;5.328;2023-08-30T10:26:37;20.20;77.40
41884;DHT22;27566;50.930;5.328;2023-08-30T10:29:05;20.20;76.60
41884;DHT22;27566;50.930;5.328;2023-08-30T10:31:32;20.10;76.40
41884;DHT22;27566;50.930;5.328;2023-08-30T10:33:58;19.90;76.40
41884;DHT22;27566;50.930;5.328;2023-08-30T10:36:25;19.80;76.90
41884;DHT22;27566;50.930;5.328;2023-08-30T10:38:54;19.70;77.00
41884;DHT22;27566;50.930;5.328;2023-08-30T10:41:24;19.60;77.10
41884;DHT22;27566;50.930;5.328;2023-08-30T10:43:51;19.60;78.10
41884;DHT22;27566;50.930;5.328;2023-08-30T10:46:28;19.50;78.50
41884;DHT22;27566;50.930;5.328;2023-08-30T10:48:55;19.40;79.00
41884;DHT22;27566;50.930;5.328;2023-08-30T10:51:37;19.40;79.80
41884;DHT22;27566;50.930;5.328;2023-08-30T10:54:11;19.40;80.40
41884;DHT22;27566;50.930;5.328;2023-08-30T10:56:54;19.40;81.10
41884;DHT22;27566;50.930;5.328;2023-08-30T10:59:22;19.60;80.90
41884;DHT22;27566;50.930;5.328;2023-08-30T11:01:49;19.90;80.90
41884;DHT22;27566;50.930;5.328;2023-08-30T11:04:17;20.20;80.20
41884;DHT22;27566;50.930;5.328;2023-08-30T11:06:44;20.60;79.50
41884;DHT22;27566;50.930;5.328;2023-08-30T11:09:16;20.80;77.40
41884;DHT22;27566;50.930;5.328;2023-08-30T11:11:43;20.90;77.00
41884;DHT22;27566;50.930;5.328;2023-08-30T11:14:09;21.00;76.60
41884;DHT22;27566;50.930;5.328;2023-08-30T11:16:36;21.20;76.50
41884;DHT22;27566;50.930;5.328;2023-08-30T11:19:03;21.50;74.70
41884;DHT22;27566;50.930;5.328;2023-08-30T11:21:30;21.60;74.90
41884;DHT22;27566;50.930;5.328;2023-08-30T11:23:56;21.70;74.10
41884;DHT22;27566;50.930;5.328;2023-08-30T11:26:22;21.80;74.00
41884;DHT22;27566;50.930;5.328;2023-08-30T11:28:48;21.90;74.00
41884;DHT22;27566;50.930;5.328;2023-08-30T11:31:24;21.90;74.00
41884;DHT22;27566;50.930;5.328;2023-08-30T11:33:57;22.00;73.10
41884;DHT22;27566;50.930;5.328;2023-08-30T11:36:25;22.20;72.20
41884;DHT22;27566;50.930;5.328;2023-08-30T11:38:55;22.40;71.60
41884;DHT22;27566;50.930;5.328;2023-08-30T11:41:22;22.60;71.00
41884;DHT22;27566;50.930;5.328;2023-08-30T11:43:48;23.00;70.00
41884;DHT22;27566;50.930;5.328;2023-08-30T11:46:14;23.40;68.80
41884;DHT22;27566;50.930;5.328;2023-08-30T11:48:40;23.70;68.50
41884;DHT22;27566;50.930;5.328;2023-08-30T11:51:07;23.80;67.90
41884;DHT22;27566;50.930;5.328;2023-08-30T11:53:34;23.90;66.30
41884;DHT22;27566;50.930;5.328;2023-08-30T11:56:00;23.80;65.30
41884;DHT22;27566;50.930;5.328;2023-08-30T11:58:26;23.80;64.60
41884;DHT22;27566;50.930;5.328;2023-08-30T12:00:55;23.80;65.10
41884;DHT22;27566;50.930;5.328;2023-08-30T12:03:21;23.90;65.60
41884;DHT22;27566;50.930;5.328;2023-08-30T12:05:48;24.00;64.90
41884;DHT22;27566;50.930;5.328;2023-08-30T12:08:24;24.20;64.60
41884;DHT22;27566;50.930;5.328;2023-08-30T12:10:51;24.20;64.30
41884;DHT22;27566;50.930;5.328;2023-08-30T12:15:47;24.10;62.50
41884;DHT22;27566;50.930;5.328;2023-08-30T12:18:13;24.00;62.00
41884;DHT22;27566;50.930;5.328;2023-08-30T12:20:39;23.90;61.50
41884;DHT22;27566;50.930;5.328;2023-08-30T12:23:05;23.70;61.10
41884;DHT22;27566;50.930;5.328;2023-08-30T12:25:31;23.50;61.20
41884;DHT22;27566;50.930;5.328;2023-08-30T12:27:59;23.10;61.70
41884;DHT22;27566;50.930;5.328;2023-08-30T12:30:25;22.90;62.20
41884;DHT22;27566;50.930;5.328;2023-08-30T12:32:59;22.70;62.80
41884;DHT22;27566;50.930;5.328;2023-08-30T12:35:25;22.70;63.20
41884;DHT22;27566;50.930;5.328;2023-08-30T12:37:51;22.80;63.50
41884;DHT22;27566;50.930;5.328;2023-08-30T12:40:17;22.90;63.60
41884;DHT22;27566;50.930;5.328;2023-08-30T12:42:43;23.00;63.30
41884;DHT22;27566;50.930;5.328;2023-08-30T12:45:09;23.00;63.20
41884;DHT22;27566;50.930;5.328;2023-08-30T12:47:35;23.10;63.60
41884;DHT22;27566;50.930;5.328;2023-08-30T12:50:01;23.40;63.30
41884;DHT22;27566;50.930;5.328;2023-08-30T12:52:27;23.60;62.80
41884;DHT22;27566;50.930;5.328;2023-08-30T12:54:53;23.80;62.00
41884;DHT22;27566;50.930;5.328;2023-08-30T12:57:19;23.90;61.20
41884;DHT22;27566;50.930;5.328;2023-08-30T12:59:45;23.90;60.60
41884;DHT22;27566;50.930;5.328;2023-08-30T13:02:11;23.80;61.00
41884;DHT22;27566;50.930;5.328;2023-08-30T13:04:37;23.70;61.00
41884;DHT22;27566;50.930;5.328;2023-08-30T13:07:04;23.50;60.80
41884;DHT22;27566;50.930;5.328;2023-08-30T13:09:30;23.30;61.10
41884;DHT22;27566;50.930;5.328;2023-08-30T13:11:56;23.10;61.70
41884;DHT22;27566;50.930;5.328;2023-08-30T13:14:22;23.00;62.20
41884;DHT22;27566;50.930;5.328;2023-08-30T13:16:47;23.00;62.20
41884;DHT22;27566;50.930;5.328;2023-08-30T13:19:14;23.10;62.20
41884;DHT22;27566;50.930;5.328;2023-08-30T13:21:40;23.10;62.20
41884;DHT22;27566;50.930;5.328;2023-08-30T13:24:08;23.10;62.20
41884;DHT22;27566;50.930;5.328;2023-08-30T13:26:34;23.00;62.20
41884;DHT22;27566;50.930;5.328;2023-08-30T13:29:00;23.00;62.30
41884;DHT22;27566;50.930;5.328;2023-08-30T13:31:27;23.10;62.30
41884;DHT22;27566;50.930;5.328;2023-08-30T13:33:53;23.30;62.00
41884;DHT22;27566;50.930;5.328;2023-08-30T13:36:19;23.40;61.30
41884;DHT22;27566;50.930;5.328;2023-08-30T13:38:45;23.40;60.60
41884;DHT22;27566;50.930;5.328;2023-08-30T13:41:11;23.40;59.90
41884;DHT22;27566;50.930;5.328;2023-08-30T13:43:37;23.50;58.70
41884;DHT22;27566;50.930;5.328;2023-08-30T13:46:03;23.60;57.80
41884;DHT22;27566;50.930;5.328;2023-08-30T13:48:30;23.70;56.80
41884;DHT22;27566;50.930;5.328;2023-08-30T13:50:55;23.60;56.90
41884;DHT22;27566;50.930;5.328;2023-08-30T13:53:21;23.40;57.40
41884;DHT22;27566;50.930;5.328;2023-08-30T13:55:47;23.20;58.40
41884;DHT22;27566;50.930;5.328;2023-08-30T13:58:16;23.00;58.30
41884;DHT22;27566;50.930;5.328;2023-08-30T14:00:43;22.70;58.20
41884;DHT22;27566;50.930;5.328;2023-08-30T14:03:09;22.40;58.00
41884;DHT22;27566;50.930;5.328;2023-08-30T14:05:36;22.20;56.90
41884;DHT22;27566;50.930;5.328;2023-08-30T14:08:02;22.00;56.20
41884;DHT22;27566;50.930;5.328;2023-08-30T14:10:28;21.80;55.30
41884;DHT22;27566;50.930;5.328;2023-08-30T14:12:54;21.70;53.00
41884;DHT22;27566;50.930;5.328;2023-08-30T14:15:20;21.60;54.30
41884;DHT22;27566;50.930;5.328;2023-08-30T14:17:45;21.60;54.00
41884;DHT22;27566;50.930;5.328;2023-08-30T14:20:11;21.60;52.90
41884;DHT22;27566;50.930;5.328;2023-08-30T14:22:37;21.50;51.90
41884;DHT22;27566;50.930;5.328;2023-08-30T14:25:03;21.40;51.50
41884;DHT22;27566;50.930;5.328;2023-08-30T14:27:30;21.50;52.30
41884;DHT22;27566;50.930;5.328;2023-08-30T14:29:56;21.40;51.60
41884;DHT22;27566;50.930;5.328;2023-08-30T14:32:22;21.40;52.40
41884;DHT22;27566;50.930;5.328;2023-08-30T14:34:48;21.40;53.10
41884;DHT22;27566;50.930;5.328;2023-08-30T14:37:14;21.40;51.60
41884;DHT22;27566;50.930;5.328;2023-08-30T14:39:40;21.30;51.30
41884;DHT22;27566;50.930;5.328;2023-08-30T14:42:06;21.20;49.20
41884;DHT22;27566;50.930;5.328;2023-08-30T14:44:31;21.10;50.10
41884;DHT22;27566;50.930;5.328;2023-08-30T14:46:57;21.10;50.90
41884;DHT22;27566;50.930;5.328;2023-08-30T14:49:23;21.20;51.70
41884;DHT22;27566;50.930;5.328;2023-08-30T14:51:49;21.20;51.00
41884;DHT22;27566;50.930;5.328;2023-08-30T14:54:15;21.20;50.30
41884;DHT22;27566;50.930;5.328;2023-08-30T14:56:41;21.30;52.10
41884;DHT22;27566;50.930;5.328;2023-08-30T14:59:07;21.40;51.60
41884;DHT22;27566;50.930;5.328;2023-08-30T15:01:33;21.50;52.00
41884;DHT22;27566;50.930;5.328;2023-08-30T15:03:58;21.60;51.80
41884;DHT22;27566;50.930;5.328;2023-08-30T15:06:24;21.60;50.80
41884;DHT22;27566;50.930;5.328;2023-08-30T15:08:50;21.70;50.60
41884;DHT22;27566;50.930;5.328;2023-08-30T15:11:16;21.80;51.00
41884;DHT22;27566;50.930;5.328;2023-08-30T15:13:42;21.70;50.80
41884;DHT22;27566;50.930;5.328;2023-08-30T15:16:08;21.70;51.30
41884;DHT22;27566;50.930;5.328;2023-08-30T15:18:34;21.60;51.50
41884;DHT22;27566;50.930;5.328;2023-08-30T15:21:00;21.60;52.30
41884;DHT22;27566;50.930;5.328;2023-08-30T15:23:27;21.70;52.60
41884;DHT22;27566;50.930;5.328;2023-08-30T15:25:53;21.90;52.20
41884;DHT22;27566;50.930;5.328;2023-08-30T15:28:19;22.00;51.80
41884;DHT22;27566;50.930;5.328;2023-08-30T15:30:46;22.00;51.40
41884;DHT22;27566;50.930;5.328;2023-08-30T15:33:12;21.90;51.10
41884;DHT22;27566;50.930;5.328;2023-08-30T15:35:40;21.90;51.80
41884;DHT22;27566;50.930;5.328;2023-08-30T15:38:07;22.00;51.10